sensor_id;sensor_type;location;lat;lon;timestamp;pressure;altitude;pressure_sealevel;temperature;humidity
68230;BME280;55048;52.220;5.160;2023-07-13T00:00:46;101255.91;;;19.55;76.08
68230;BME280;55048;52.220;5.160;2023-07-13T00:03:12;101241.09;;;19.53;76.67
68230;BME280;55048;52.220;5.160;2023-07-13T00:05:39;101206.84;;;19.24;76.28
68230;BME280;55048;52.220;5.160;2023-07-13T00:08:05;101163.69;;;19.00;76.59
68230;BME280;55048;52.220;5.160;2023-07-13T00:10:30;101240.00;;;19.54;76.01
68230;BME280;55048;52.220;5.160;2023-07-13T00:12:56;101136.16;;;18.79;76.06
68230;BME280;55048;52.220;5.160;2023-07-13T00:15:25;101194.78;;;19.22;76.31
68230;BME280;55048;52.220;5.160;2023-07-13T00:17:52;101041.81;;;18.21;76.19
68230;BME280;55048;52.220;5.160;2023-07-13T00:20:18;101255.97;;;19.50;75.92
68230;BME280;55048;52.220;5.160;2023-07-13T00:22:46;101210.94;;;19.22;76.34
68230;BME280;55048;52.220;5.160;2023-07-13T00:25:12;101224.38;;;19.27;76.29
68230;BME280;55048;52.220;5.160;2023-07-13T00:27:38;101181.41;;;19.06;76.13
68230;BME280;55048;52.220;5.160;2023-07-13T00:30:04;101226.72;;;19.33;75.94
68230;BME280;55048;52.220;5.160;2023-07-13T00:32:30;101124.38;;;18.70;75.95
68230;BME280;55048;52.220;5.160;2023-07-13T00:34:57;101172.34;;;18.97;75.82
68230;BME280;55048;52.220;5.160;2023-07-13T00:37:25;101239.03;;;19.45;75.89
68230;BME280;55048;52.220;5.160;2023-07-13T00:39:51;101235.28;;;19.41;75.66
68230;BME280;55048;52.220;5.160;2023-07-13T00:42:16;101064.91;;;18.27;75.93
68230;BME280;55048;52.220;5.160;2023-07-13T00:45:01;101241.25;;;19.37;76.12
68230;BME280;55048;52.220;5.160;2023-07-13T00:47:26;101234.75;;;19.38;75.10
68230;BME280;55048;52.220;5.160;2023-07-13T00:49:51;101205.00;;;19.20;75.88
68230;BME280;55048;52.220;5.160;2023-07-13T00:52:17;101220.88;;;19.26;75.35
68230;BME280;55048;52.220;5.160;2023-07-13T00:54:45;100984.59;;;17.76;75.45
68230;BME280;55048;52.220;5.160;2023-07-13T00:57:15;101196.34;;;18.99;76.26
68230;BME280;55048;52.220;5.160;2023-07-13T00:59:43;101239.75;;;19.26;75.94
68230;BME280;55048;52.220;5.160;2023-07-13T01:02:10;101209.47;;;19.05;75.97
68230;BME280;55048;52.220;5.160;2023-07-13T01:04:36;101210.75;;;18.84;76.24
68230;BME280;55048;52.220;5.160;2023-07-13T01:07:02;101195.03;;;18.91;76.42
68230;BME280;55048;52.220;5.160;2023-07-13T01:09:27;101202.09;;;18.87;76.18
68230;BME280;55048;52.220;5.160;2023-07-13T01:11:53;101157.84;;;18.59;76.27
68230;BME280;55048;52.220;5.160;2023-07-13T01:14:19;101200.09;;;18.64;76.28
68230;BME280;55048;52.220;5.160;2023-07-13T01:16:46;101196.75;;;18.82;75.67
68230;BME280;55048;52.220;5.160;2023-07-13T01:19:37;101249.31;;;19.14;75.89
68230;BME280;55048;52.220;5.160;2023-07-13T01:22:07;101248.25;;;19.09;76.10
68230;BME280;55048;52.220;5.160;2023-07-13T01:24:38;101145.09;;;18.35;76.42
68230;BME280;55048;52.220;5.160;2023-07-13T01:27:05;101246.81;;;18.88;76.52
68230;BME280;55048;52.220;5.160;2023-07-13T01:29:33;101250.88;;;18.85;76.81
68230;BME280;55048;52.220;5.160;2023-07-13T01:31:59;101033.69;;;17.48;76.96
68230;BME280;55048;52.220;5.160;2023-07-13T01:34:26;101106.91;;;17.89;76.91
68230;BME280;55048;52.220;5.160;2023-07-13T01:36:52;101237.22;;;18.77;76.68
68230;BME280;55048;52.220;5.160;2023-07-13T01:39:22;101250.19;;;18.70;76.50
68230;BME280;55048;52.220;5.160;2023-07-13T01:41:48;101260.03;;;18.90;76.66
68230;BME280;55048;52.220;5.160;2023-07-13T01:44:14;101109.59;;;17.89;76.09
68230;BME280;55048;52.220;5.160;2023-07-13T01:46:39;101203.97;;;18.52;76.11
68230;BME280;55048;52.220;5.160;2023-07-13T01:49:05;101236.97;;;18.68;76.11
68230;BME280;55048;52.220;5.160;2023-07-13T01:51:30;101126.28;;;17.91;76.17
68230;BME280;55048;52.220;5.160;2023-07-13T01:53:56;101245.88;;;18.64;76.62
68230;BME280;55048;52.220;5.160;2023-07-13T01:56:22;101207.56;;;18.38;76.91
68230;BME280;55048;52.220;5.160;2023-07-13T01:58:48;101289.75;;;18.74;77.15
68230;BME280;55048;52.220;5.160;2023-07-13T02:01:14;101234.94;;;18.50;77.30
68230;BME280;55048;52.220;5.160;2023-07-13T02:03:39;101190.72;;;18.17;77.11
68230;BME280;55048;52.220;5.160;2023-07-13T02:06:05;101050.25;;;17.21;77.31
68230;BME280;55048;52.220;5.160;2023-07-13T02:08:32;101267.44;;;18.69;77.76
68230;BME280;55048;52.220;5.160;2023-07-13T02:10:58;101275.78;;;18.67;77.85
68230;BME280;55048;52.220;5.160;2023-07-13T02:13:24;101272.31;;;18.61;77.78
68230;BME280;55048;52.220;5.160;2023-07-13T02:15:51;101130.41;;;17.68;77.87
68230;BME280;55048;52.220;5.160;2023-07-13T02:18:16;101250.91;;;18.36;78.37
68230;BME280;55048;52.220;5.160;2023-07-13T02:20:43;101275.31;;;18.55;78.38
68230;BME280;55048;52.220;5.160;2023-07-13T02:23:09;101229.53;;;18.10;79.00
68230;BME280;55048;52.220;5.160;2023-07-13T02:25:35;101272.78;;;18.24;79.18
68230;BME280;55048;52.220;5.160;2023-07-13T02:28:00;101299.09;;;18.43;79.55
68230;BME280;55048;52.220;5.160;2023-07-13T02:30:27;101238.91;;;18.13;80.11
68230;BME280;55048;52.220;5.160;2023-07-13T02:32:55;101252.66;;;18.12;79.87
68230;BME280;55048;52.220;5.160;2023-07-13T02:35:21;101178.31;;;17.61;80.36
68230;BME280;55048;52.220;5.160;2023-07-13T02:37:47;101063.78;;;16.90;80.47
68230;BME280;55048;52.220;5.160;2023-07-13T02:40:13;101180.97;;;17.66;81.10
68230;BME280;55048;52.220;5.160;2023-07-13T02:42:39;101078.84;;;16.66;80.81
68230;BME280;55048;52.220;5.160;2023-07-13T02:45:05;101176.47;;;17.51;81.65
68230;BME280;55048;52.220;5.160;2023-07-13T02:47:32;101287.34;;;18.23;81.37
68230;BME280;55048;52.220;5.160;2023-07-13T02:49:58;101209.47;;;17.72;81.81
68230;BME280;55048;52.220;5.160;2023-07-13T02:52:24;101210.03;;;17.74;81.93
68230;BME280;55048;52.220;5.160;2023-07-13T02:54:50;101186.94;;;17.53;82.26
68230;BME280;55048;52.220;5.160;2023-07-13T02:57:15;101290.28;;;18.22;82.47
68230;BME280;55048;52.220;5.160;2023-07-13T02:59:41;101156.63;;;17.37;82.32
68230;BME280;55048;52.220;5.160;2023-07-13T03:02:06;101242.47;;;17.98;82.39
68230;BME280;55048;52.220;5.160;2023-07-13T03:04:32;101237.66;;;17.90;82.46
68230;BME280;55048;52.220;5.160;2023-07-13T03:06:58;101181.81;;;17.56;82.27
68230;BME280;55048;52.220;5.160;2023-07-13T03:09:27;101093.31;;;16.95;82.40
68230;BME280;55048;52.220;5.160;2023-07-13T03:11:54;101127.09;;;17.22;82.39
68230;BME280;55048;52.220;5.160;2023-07-13T03:14:27;101228.00;;;17.84;81.80
68230;BME280;55048;52.220;5.160;2023-07-13T03:16:52;101295.94;;;18.25;81.86
68230;BME280;55048;52.220;5.160;2023-07-13T03:19:21;101312.38;;;18.24;81.76
68230;BME280;55048;52.220;5.160;2023-07-13T03:21:49;101286.25;;;18.24;81.39
68230;BME280;55048;52.220;5.160;2023-07-13T03:24:14;101180.22;;;17.55;81.72
68230;BME280;55048;52.220;5.160;2023-07-13T03:26:41;101196.34;;;17.60;81.34
68230;BME280;55048;52.220;5.160;2023-07-13T03:29:06;101294.59;;;18.28;81.25
68230;BME280;55048;52.220;5.160;2023-07-13T03:31:35;101296.19;;;18.29;81.30
68230;BME280;55048;52.220;5.160;2023-07-13T03:34:01;101292.13;;;18.31;80.90
68230;BME280;55048;52.220;5.160;2023-07-13T03:36:30;101230.41;;;17.85;81.19
68230;BME280;55048;52.220;5.160;2023-07-13T03:39:01;101302.88;;;18.36;80.87
68230;BME280;55048;52.220;5.160;2023-07-13T03:41:41;101311.50;;;18.39;80.95
68230;BME280;55048;52.220;5.160;2023-07-13T03:44:07;101255.38;;;18.06;80.80
68230;BME280;55048;52.220;5.160;2023-07-13T03:46:32;101169.47;;;17.55;80.70
68230;BME280;55048;52.220;5.160;2023-07-13T03:48:59;101016.03;;;16.56;80.82
68230;BME280;55048;52.220;5.160;2023-07-13T03:51:24;101194.41;;;17.66;80.97
68230;BME280;55048;52.220;5.160;2023-07-13T03:53:50;101230.41;;;17.85;80.66
68230;BME280;55048;52.220;5.160;2023-07-13T03:56:18;101276.09;;;18.11;80.56
68230;BME280;55048;52.220;5.160;2023-07-13T03:58:46;101315.25;;;18.43;80.80
68230;BME280;55048;52.220;5.160;2023-07-13T04:01:23;101167.91;;;17.44;80.99
68230;BME280;55048;52.220;5.160;2023-07-13T04:03:49;101292.50;;;18.15;80.99
68230;BME280;55048;52.220;5.160;2023-07-13T04:06:18;101322.81;;;18.35;81.37
68230;BME280;55048;52.220;5.160;2023-07-13T04:08:52;101324.19;;;18.33;81.26
68230;BME280;55048;52.220;5.160;2023-07-13T04:11:33;101187.53;;;17.45;81.38
68230;BME280;55048;52.220;5.160;2023-07-13T04:13:59;101250.91;;;17.76;81.16
68230;BME280;55048;52.220;5.160;2023-07-13T04:16:25;101295.50;;;18.03;81.50
68230;BME280;55048;52.220;5.160;2023-07-13T04:18:51;101324.78;;;18.15;81.67
68230;BME280;55048;52.220;5.160;2023-07-13T04:21:20;101346.81;;;18.22;81.95
68230;BME280;55048;52.220;5.160;2023-07-13T04:23:46;101246.94;;;17.53;81.60
68230;BME280;55048;52.220;5.160;2023-07-13T04:26:11;101226.75;;;17.51;81.84
68230;BME280;55048;52.220;5.160;2023-07-13T04:28:37;101156.69;;;17.01;82.15
68230;BME280;55048;52.220;5.160;2023-07-13T04:31:02;101123.94;;;16.69;81.60
68230;BME280;55048;52.220;5.160;2023-07-13T04:33:28;101338.22;;;18.20;81.84
68230;BME280;55048;52.220;5.160;2023-07-13T04:35:55;101040.72;;;16.02;81.79
68230;BME280;55048;52.220;5.160;2023-07-13T04:38:24;101259.81;;;17.56;82.16
68230;BME280;55048;52.220;5.160;2023-07-13T04:40:50;101137.63;;;16.82;82.41
68230;BME280;55048;52.220;5.160;2023-07-13T04:43:16;101266.81;;;17.63;82.34
68230;BME280;55048;52.220;5.160;2023-07-13T04:45:42;101163.44;;;16.89;83.25
68230;BME280;55048;52.220;5.160;2023-07-13T04:48:07;101184.63;;;17.05;83.08
68230;BME280;55048;52.220;5.160;2023-07-13T04:50:36;101343.63;;;18.15;83.74
68230;BME280;55048;52.220;5.160;2023-07-13T04:53:01;101303.34;;;17.89;83.40
68230;BME280;55048;52.220;5.160;2023-07-13T04:55:28;101203.13;;;17.32;83.44
68230;BME280;55048;52.220;5.160;2023-07-13T04:57:57;101272.72;;;17.65;83.87
68230;BME280;55048;52.220;5.160;2023-07-13T05:00:24;100871.97;;;15.09;83.78
68230;BME280;55048;52.220;5.160;2023-07-13T05:02:50;101282.94;;;17.57;84.66
68230;BME280;55048;52.220;5.160;2023-07-13T05:05:15;101026.78;;;16.16;84.78
68230;BME280;55048;52.220;5.160;2023-07-13T05:07:41;101218.97;;;17.39;84.74
68230;BME280;55048;52.220;5.160;2023-07-13T05:10:07;101185.44;;;17.01;84.88
68230;BME280;55048;52.220;5.160;2023-07-13T05:12:33;101205.31;;;17.30;85.05
68230;BME280;55048;52.220;5.160;2023-07-13T05:14:59;101220.59;;;17.40;84.93
68230;BME280;55048;52.220;5.160;2023-07-13T05:17:24;101204.50;;;17.30;85.06
68230;BME280;55048;52.220;5.160;2023-07-13T05:19:50;101141.94;;;16.99;84.98
68230;BME280;55048;52.220;5.160;2023-07-13T05:22:15;101364.75;;;18.52;84.93
68230;BME280;55048;52.220;5.160;2023-07-13T05:24:41;101327.13;;;18.31;84.64
68230;BME280;55048;52.220;5.160;2023-07-13T05:27:06;101287.38;;;18.13;84.70
68230;BME280;55048;52.220;5.160;2023-07-13T05:29:32;101178.41;;;17.36;84.58
68230;BME280;55048;52.220;5.160;2023-07-13T05:31:58;101289.78;;;18.20;84.69
68230;BME280;55048;52.220;5.160;2023-07-13T05:34:23;101382.97;;;18.80;84.55
68230;BME280;55048;52.220;5.160;2023-07-13T05:36:49;101381.66;;;18.73;84.55
68230;BME280;55048;52.220;5.160;2023-07-13T05:39:15;101139.72;;;17.26;84.53
68230;BME280;55048;52.220;5.160;2023-07-13T05:41:41;101200.88;;;17.75;84.47
68230;BME280;55048;52.220;5.160;2023-07-13T05:44:07;101403.84;;;19.04;83.94
68230;BME280;55048;52.220;5.160;2023-07-13T05:46:32;101318.16;;;18.46;84.46
68230;BME280;55048;52.220;5.160;2023-07-13T05:49:01;101339.16;;;18.54;84.25
68230;BME280;55048;52.220;5.160;2023-07-13T05:51:31;101155.22;;;17.50;84.05
68230;BME280;55048;52.220;5.160;2023-07-13T05:53:57;101329.97;;;18.60;84.37
68230;BME280;55048;52.220;5.160;2023-07-13T05:56:22;101336.91;;;18.77;83.81
68230;BME280;55048;52.220;5.160;2023-07-13T05:58:48;101400.09;;;19.39;83.67
68230;BME280;55048;52.220;5.160;2023-07-13T06:01:15;101207.44;;;18.08;83.98
68230;BME280;55048;52.220;5.160;2023-07-13T06:03:40;101303.34;;;18.98;83.81
68230;BME280;55048;52.220;5.160;2023-07-13T06:06:08;101400.63;;;19.75;83.16
68230;BME280;55048;52.220;5.160;2023-07-13T06:08:34;101419.47;;;19.80;83.27
68230;BME280;55048;52.220;5.160;2023-07-13T06:13:32;101411.31;;;19.85;83.11
68230;BME280;55048;52.220;5.160;2023-07-13T06:15:59;101126.03;;;17.88;82.23
68230;BME280;55048;52.220;5.160;2023-07-13T06:18:24;101418.16;;;19.38;82.82
68230;BME280;55048;52.220;5.160;2023-07-13T06:20:50;101361.91;;;19.27;83.03
68230;BME280;55048;52.220;5.160;2023-07-13T06:23:15;101381.75;;;19.41;83.13
68230;BME280;55048;52.220;5.160;2023-07-13T06:25:41;101344.72;;;19.18;83.46
68230;BME280;55048;52.220;5.160;2023-07-13T06:28:08;101187.91;;;18.32;82.57
68230;BME280;55048;52.220;5.160;2023-07-13T06:30:33;101310.13;;;19.25;82.27
68230;BME280;55048;52.220;5.160;2023-07-13T06:32:59;101251.31;;;18.98;81.94
68230;BME280;55048;52.220;5.160;2023-07-13T06:35:24;101357.44;;;19.75;81.64
68230;BME280;55048;52.220;5.160;2023-07-13T06:37:50;101346.97;;;19.98;80.81
68230;BME280;55048;52.220;5.160;2023-07-13T06:40:16;101436.19;;;20.83;79.90
68230;BME280;55048;52.220;5.160;2023-07-13T06:42:42;101224.19;;;19.71;78.17
68230;BME280;55048;52.220;5.160;2023-07-13T06:45:08;101432.63;;;21.45;76.74
68230;BME280;55048;52.220;5.160;2023-07-13T06:47:33;101245.66;;;20.24;75.71
68230;BME280;55048;52.220;5.160;2023-07-13T06:50:00;101417.31;;;21.54;74.84
68230;BME280;55048;52.220;5.160;2023-07-13T06:52:25;101156.25;;;20.07;74.29
68230;BME280;55048;52.220;5.160;2023-07-13T06:54:51;101451.25;;;21.98;73.97
68230;BME280;55048;52.220;5.160;2023-07-13T06:57:16;101215.78;;;20.16;74.90
68230;BME280;55048;52.220;5.160;2023-07-13T06:59:42;101438.41;;;21.19;77.91
68230;BME280;55048;52.220;5.160;2023-07-13T07:02:10;101306.66;;;19.82;79.90
68230;BME280;55048;52.220;5.160;2023-07-13T07:04:35;101379.81;;;20.05;81.73
68230;BME280;55048;52.220;5.160;2023-07-13T07:07:01;101262.50;;;18.81;81.00
68230;BME280;55048;52.220;5.160;2023-07-13T07:09:27;101182.56;;;18.27;79.78
68230;BME280;55048;52.220;5.160;2023-07-13T07:11:52;101283.81;;;18.77;79.71
68230;BME280;55048;52.220;5.160;2023-07-13T07:14:18;101366.72;;;18.91;82.42
68230;BME280;55048;52.220;5.160;2023-07-13T07:16:43;101429.97;;;19.08;82.63
68230;BME280;55048;52.220;5.160;2023-07-13T07:19:09;101140.31;;;16.98;80.50
68230;BME280;55048;52.220;5.160;2023-07-13T07:21:34;101337.97;;;18.16;80.19
68230;BME280;55048;52.220;5.160;2023-07-13T07:23:59;101223.31;;;17.20;80.34
68230;BME280;55048;52.220;5.160;2023-07-13T07:26:25;101297.47;;;17.56;80.73
68230;BME280;55048;52.220;5.160;2023-07-13T07:28:51;101302.84;;;17.51;80.90
68230;BME280;55048;52.220;5.160;2023-07-13T07:31:16;101377.00;;;18.14;80.97
68230;BME280;55048;52.220;5.160;2023-07-13T07:33:42;101105.16;;;16.48;80.43
68230;BME280;55048;52.220;5.160;2023-07-13T07:36:11;101285.63;;;17.68;80.18
68230;BME280;55048;52.220;5.160;2023-07-13T07:38:37;101434.88;;;18.96;80.54
68230;BME280;55048;52.220;5.160;2023-07-13T07:41:04;101146.19;;;17.15;81.26
68230;BME280;55048;52.220;5.160;2023-07-13T07:43:30;101463.63;;;19.11;81.04
68230;BME280;55048;52.220;5.160;2023-07-13T07:45:56;101212.75;;;17.59;80.68
68230;BME280;55048;52.220;5.160;2023-07-13T07:48:22;101215.22;;;17.40;80.45
68230;BME280;55048;52.220;5.160;2023-07-13T07:50:48;101443.38;;;19.58;80.36
68230;BME280;55048;52.220;5.160;2023-07-13T07:53:14;101323.69;;;19.15;79.48
68230;BME280;55048;52.220;5.160;2023-07-13T07:55:39;101202.97;;;18.77;79.74
68230;BME280;55048;52.220;5.160;2023-07-13T07:58:05;101468.66;;;20.59;79.39
68230;BME280;55048;52.220;5.160;2023-07-13T08:00:31;101370.13;;;19.75;79.62
68230;BME280;55048;52.220;5.160;2023-07-13T08:02:58;101470.19;;;20.66;79.63
68230;BME280;55048;52.220;5.160;2023-07-13T08:05:27;101475.06;;;20.87;80.24
68230;BME280;55048;52.220;5.160;2023-07-13T08:07:53;101462.88;;;20.90;79.28
68230;BME280;55048;52.220;5.160;2023-07-13T08:10:18;101421.13;;;20.77;79.34
68230;BME280;55048;52.220;5.160;2023-07-13T08:12:44;101278.59;;;20.02;79.22
68230;BME280;55048;52.220;5.160;2023-07-13T08:15:13;101173.06;;;19.80;78.81
68230;BME280;55048;52.220;5.160;2023-07-13T08:17:39;101437.13;;;21.30;79.01
68230;BME280;55048;52.220;5.160;2023-07-13T08:20:05;101449.31;;;21.33;78.46
68230;BME280;55048;52.220;5.160;2023-07-13T08:22:31;101409.84;;;20.94;78.00
68230;BME280;55048;52.220;5.160;2023-07-13T08:24:56;101390.34;;;20.54;79.16
68230;BME280;55048;52.220;5.160;2023-07-13T08:27:23;101385.25;;;20.29;79.76
68230;BME280;55048;52.220;5.160;2023-07-13T08:29:49;101448.88;;;20.64;80.92
68230;BME280;55048;52.220;5.160;2023-07-13T08:32:15;101356.13;;;19.73;81.00
68230;BME280;55048;52.220;5.160;2023-07-13T08:34:42;101415.13;;;19.84;79.97
68230;BME280;55048;52.220;5.160;2023-07-13T08:37:07;101485.75;;;19.97;80.15
68230;BME280;55048;52.220;5.160;2023-07-13T08:39:33;101465.25;;;19.56;78.28
68230;BME280;55048;52.220;5.160;2023-07-13T08:42:05;101282.75;;;18.24;78.24
68230;BME280;55048;52.220;5.160;2023-07-13T08:45:46;101360.97;;;18.53;79.08
68230;BME280;55048;52.220;5.160;2023-07-13T08:47:42;101379.19;;;18.81;78.88
68230;BME280;55048;52.220;5.160;2023-07-13T08:50:17;101495.75;;;19.52;79.75
68230;BME280;55048;52.220;5.160;2023-07-13T08:52:43;101489.56;;;19.51;80.12
68230;BME280;55048;52.220;5.160;2023-07-13T08:57:39;101324.41;;;18.91;82.40
68230;BME280;55048;52.220;5.160;2023-07-13T09:00:10;101422.84;;;19.96;79.92
68230;BME280;55048;52.220;5.160;2023-07-13T09:02:44;101448.69;;;20.55;79.29
68230;BME280;55048;52.220;5.160;2023-07-13T09:05:14;101331.44;;;19.60;77.56
68230;BME280;55048;52.220;5.160;2023-07-13T09:15:46;101452.97;;;20.32;77.85
68230;BME280;55048;52.220;5.160;2023-07-13T09:18:38;101496.94;;;20.91;77.84
68230;BME280;55048;52.220;5.160;2023-07-13T09:27:21;101444.53;;;21.25;76.20
68230;BME280;55048;52.220;5.160;2023-07-13T09:29:56;101420.41;;;21.28;75.36
68230;BME280;55048;52.220;5.160;2023-07-13T09:32:24;101523.84;;;22.28;74.49
68230;BME280;55048;52.220;5.160;2023-07-13T09:34:52;101515.47;;;22.57;74.01
68230;BME280;55048;52.220;5.160;2023-07-13T09:37:21;101511.44;;;22.69;73.49
68230;BME280;55048;52.220;5.160;2023-07-13T09:39:49;101466.25;;;22.64;72.63
68230;BME280;55048;52.220;5.160;2023-07-13T09:42:20;101515.56;;;23.07;71.92
68230;BME280;55048;52.220;5.160;2023-07-13T09:47:17;101480.50;;;22.83;71.94
68230;BME280;55048;52.220;5.160;2023-07-13T09:49:44;101475.19;;;22.37;72.96
68230;BME280;55048;52.220;5.160;2023-07-13T09:52:15;101455.25;;;22.00;74.08
68230;BME280;55048;52.220;5.160;2023-07-13T09:54:45;101481.22;;;21.87;74.10
68230;BME280;55048;52.220;5.160;2023-07-13T09:57:16;101502.75;;;21.79;73.94
68230;BME280;55048;52.220;5.160;2023-07-13T09:59:45;101518.19;;;21.78;74.40
68230;BME280;55048;52.220;5.160;2023-07-13T10:05:01;101526.03;;;22.12;74.31
68230;BME280;55048;52.220;5.160;2023-07-13T10:07:29;101524.69;;;22.42;73.00
68230;BME280;55048;52.220;5.160;2023-07-13T10:09:57;101463.00;;;22.07;71.00
68230;BME280;55048;52.220;5.160;2023-07-13T10:12:24;101466.88;;;22.01;69.35
68230;BME280;55048;52.220;5.160;2023-07-13T10:14:52;101406.88;;;21.28;66.61
68230;BME280;55048;52.220;5.160;2023-07-13T10:17:26;101390.91;;;20.94;67.25
68230;BME280;55048;52.220;5.160;2023-07-13T10:20:01;101538.59;;;21.71;67.22
68230;BME280;55048;52.220;5.160;2023-07-13T10:25:20;101364.53;;;20.43;68.16
68230;BME280;55048;52.220;5.160;2023-07-13T10:27:47;101540.88;;;21.45;67.96
68230;BME280;55048;52.220;5.160;2023-07-13T10:30:23;101556.53;;;21.48;67.92
68230;BME280;55048;52.220;5.160;2023-07-13T10:33:02;101510.31;;;21.01;68.03
68230;BME280;55048;52.220;5.160;2023-07-13T10:35:29;101490.94;;;20.94;68.53
68230;BME280;55048;52.220;5.160;2023-07-13T10:38:01;101551.44;;;21.22;69.08
68230;BME280;55048;52.220;5.160;2023-07-13T10:40:43;101547.75;;;21.37;68.70
68230;BME280;55048;52.220;5.160;2023-07-13T10:43:35;101532.94;;;21.29;68.70
68230;BME280;55048;52.220;5.160;2023-07-13T10:46:06;101337.81;;;19.94;67.94
68230;BME280;55048;52.220;5.160;2023-07-13T10:48:34;101544.84;;;21.09;67.42
68230;BME280;55048;52.220;5.160;2023-07-13T10:51:04;101602.03;;;21.22;67.94
68230;BME280;55048;52.220;5.160;2023-07-13T10:53:33;101514.88;;;20.82;69.14
68230;BME280;55048;52.220;5.160;2023-07-13T10:56:01;101563.53;;;21.06;70.08
68230;BME280;55048;52.220;5.160;2023-07-13T10:58:46;101091.16;;;18.12;70.43
68230;BME280;55048;52.220;5.160;2023-07-13T11:01:16;101214.63;;;19.55;69.85
68230;BME280;55048;52.220;5.160;2023-07-13T11:06:15;101481.41;;;21.91;66.45
68230;BME280;55048;52.220;5.160;2023-07-13T11:27:28;101534.25;;;22.81;60.44
68230;BME280;55048;52.220;5.160;2023-07-13T11:32:42;101571.94;;;23.24;58.80
68230;BME280;55048;52.220;5.160;2023-07-13T11:35:21;101475.78;;;22.61;57.52
68230;BME280;55048;52.220;5.160;2023-07-13T11:37:49;101409.75;;;22.44;57.95
68230;BME280;55048;52.220;5.160;2023-07-13T11:40:15;101545.72;;;23.56;58.32
68230;BME280;55048;52.220;5.160;2023-07-13T11:42:40;101452.56;;;23.10;57.52
68230;BME280;55048;52.220;5.160;2023-07-13T11:45:19;101589.16;;;23.92;57.17
68230;BME280;55048;52.220;5.160;2023-07-13T11:47:48;101546.31;;;23.53;56.39
68230;BME280;55048;52.220;5.160;2023-07-13T11:50:22;101416.88;;;22.67;56.20
68230;BME280;55048;52.220;5.160;2023-07-13T11:52:50;101512.66;;;23.40;55.85
68230;BME280;55048;52.220;5.160;2023-07-13T11:55:20;101576.56;;;23.96;55.77
68230;BME280;55048;52.220;5.160;2023-07-13T11:58:00;101546.50;;;23.70;55.35
68230;BME280;55048;52.220;5.160;2023-07-13T12:00:29;101512.81;;;23.57;54.73
68230;BME280;55048;52.220;5.160;2023-07-13T12:02:59;101563.59;;;23.71;54.27
68230;BME280;55048;52.220;5.160;2023-07-13T12:05:26;101582.69;;;24.02;55.40
68230;BME280;55048;52.220;5.160;2023-07-13T12:07:52;101586.03;;;24.21;55.47
68230;BME280;55048;52.220;5.160;2023-07-13T12:10:30;101592.25;;;24.22;53.92
68230;BME280;55048;52.220;5.160;2023-07-13T12:13:04;101594.34;;;24.25;54.66
68230;BME280;55048;52.220;5.160;2023-07-13T12:15:39;101372.56;;;22.72;54.83
68230;BME280;55048;52.220;5.160;2023-07-13T12:18:18;101563.41;;;24.12;54.64
68230;BME280;55048;52.220;5.160;2023-07-13T12:20:45;101584.53;;;24.37;55.28
68230;BME280;55048;52.220;5.160;2023-07-13T12:23:32;101589.88;;;24.29;53.88
68230;BME280;55048;52.220;5.160;2023-07-13T12:26:04;101535.31;;;24.16;53.81
68230;BME280;55048;52.220;5.160;2023-07-13T12:28:33;101375.66;;;23.15;52.61
68230;BME280;55048;52.220;5.160;2023-07-13T12:31:02;101583.19;;;24.57;53.29
68230;BME280;55048;52.220;5.160;2023-07-13T12:33:31;101600.50;;;24.61;53.00
68230;BME280;55048;52.220;5.160;2023-07-13T12:36:09;101597.53;;;24.80;53.95
68230;BME280;55048;52.220;5.160;2023-07-13T12:38:45;101197.16;;;22.13;52.64
68230;BME280;55048;52.220;5.160;2023-07-13T12:41:12;101454.09;;;23.84;51.61
68230;BME280;55048;52.220;5.160;2023-07-13T12:43:40;101429.78;;;23.56;53.30
68230;BME280;55048;52.220;5.160;2023-07-13T12:46:36;101381.44;;;23.22;52.46
68230;BME280;55048;52.220;5.160;2023-07-13T12:49:05;101520.22;;;23.79;52.42
68230;BME280;55048;52.220;5.160;2023-07-13T12:51:32;101188.69;;;21.37;53.74
68230;BME280;55048;52.220;5.160;2023-07-13T12:54:12;101579.72;;;23.89;54.98
68230;BME280;55048;52.220;5.160;2023-07-13T12:56:38;101535.38;;;23.80;54.50
68230;BME280;55048;52.220;5.160;2023-07-13T13:02:02;101461.81;;;23.09;53.88
68230;BME280;55048;52.220;5.160;2023-07-13T13:04:45;101430.41;;;22.95;54.90
68230;BME280;55048;52.220;5.160;2023-07-13T13:07:26;101606.69;;;24.31;54.40
68230;BME280;55048;52.220;5.160;2023-07-13T13:09:52;101152.63;;;21.42;54.19
68230;BME280;55048;52.220;5.160;2023-07-13T13:12:22;101327.03;;;22.46;54.62
68230;BME280;55048;52.220;5.160;2023-07-13T13:14:51;101434.47;;;23.42;54.54
68230;BME280;55048;52.220;5.160;2023-07-13T13:17:28;101305.78;;;22.39;55.28
68230;BME280;55048;52.220;5.160;2023-07-13T13:19:55;101229.19;;;22.11;53.62
68230;BME280;55048;52.220;5.160;2023-07-13T13:22:21;101332.16;;;22.84;53.35
68230;BME280;55048;52.220;5.160;2023-07-13T13:24:47;101326.69;;;22.61;52.94
68230;BME280;55048;52.220;5.160;2023-07-13T13:27:25;101358.41;;;22.61;53.63
68230;BME280;55048;52.220;5.160;2023-07-13T13:29:51;101230.19;;;21.74;53.52
68230;BME280;55048;52.220;5.160;2023-07-13T13:32:20;101628.50;;;24.17;53.66
68230;BME280;55048;52.220;5.160;2023-07-13T13:34:45;101482.00;;;23.39;53.85
68230;BME280;55048;52.220;5.160;2023-07-13T13:37:18;101616.66;;;24.58;53.35
68230;BME280;55048;52.220;5.160;2023-07-13T13:39:44;101227.75;;;22.00;51.81
68230;BME280;55048;52.220;5.160;2023-07-13T13:42:13;101658.31;;;24.67;52.10
68230;BME280;55048;52.220;5.160;2023-07-13T13:44:42;101614.72;;;24.58;52.21
68230;BME280;55048;52.220;5.160;2023-07-13T13:47:29;101228.97;;;21.80;53.08
68230;BME280;55048;52.220;5.160;2023-07-13T13:49:56;101433.09;;;23.31;51.93